createdAt,value
2022-10-19T00:01:40.273Z,3.63
2022-10-19T00:04:10.705Z,3.65
2022-10-19T00:06:40.907Z,3.40
2022-10-19T00:09:13.923Z,3.30
2022-10-19T00:11:47.478Z,4.10
2022-10-19T00:14:21.376Z,3.95
2022-10-19T00:16:53.142Z,3.80
2022-10-19T00:19:27.515Z,2.95
2022-10-19T00:21:57.723Z,3.83
2022-10-19T00:24:27.998Z,4.13
2022-10-19T00:30:39.038Z,2.85
2022-10-19T00:33:09.140Z,3.28
2022-10-19T00:35:42.252Z,2.83
2022-10-19T00:38:12.335Z,3.75
2022-10-19T00:40:42.573Z,2.83
2022-10-19T00:43:22.032Z,2.78
2022-10-19T00:45:52.710Z,3.10
2022-10-19T00:48:31.007Z,2.75
2022-10-19T00:51:01.875Z,2.97
2022-10-19T00:53:32.091Z,2.72
2022-10-19T00:56:07.914Z,3.55
2022-10-19T00:58:38.572Z,3.53
2022-10-19T01:01:11.473Z,2.65
2022-10-19T01:03:41.804Z,2.42
2022-10-19T01:06:18.089Z,2.30
2022-10-19T01:08:48.291Z,2.38
2022-10-19T01:11:42.966Z,2.17
2022-10-19T01:14:34.286Z,2.50
2022-10-19T01:17:19.372Z,2.80
2022-10-19T01:20:14.132Z,2.00
2022-10-19T01:23:05.137Z,2.20
2022-10-19T01:25:48.947Z,2.75
2022-10-19T01:28:46.356Z,2.38
2022-10-19T01:31:19.331Z,1.77
2022-10-19T01:34:10.011Z,1.90
2022-10-19T01:36:43.534Z,1.40
2022-10-19T01:39:38.644Z,1.90
2022-10-19T01:42:29.971Z,1.38
2022-10-19T01:45:14.782Z,1.58
2022-10-19T01:48:15.717Z,1.20
2022-10-19T01:51:00.616Z,1.58
2022-10-19T01:53:39.649Z,1.73
2022-10-19T01:56:11.586Z,2.58
2022-10-19T01:58:45.513Z,1.42
2022-10-19T02:01:19.659Z,1.58
2022-10-19T02:03:50.510Z,1.02
2022-10-19T02:06:21.159Z,1.08
2022-10-19T02:08:53.483Z,1.27
2022-10-19T02:11:24.375Z,1.00
2022-10-19T02:14:05.159Z,0.90
2022-10-19T02:16:42.457Z,1.50
2022-10-19T02:19:15.737Z,1.38
2022-10-19T02:21:46.146Z,1.10
2022-10-19T02:24:16.334Z,1.38
2022-10-19T02:26:46.604Z,1.20
2022-10-19T02:29:17.290Z,0.85
2022-10-19T02:31:47.586Z,1.10
2022-10-19T02:34:17.852Z,0.93
2022-10-19T02:36:48.059Z,0.80
2022-10-19T02:39:18.267Z,0.98
2022-10-19T02:41:56.266Z,0.90
2022-10-19T02:44:50.512Z,2.30
2022-10-19T02:47:26.349Z,0.88
2022-10-19T02:49:56.401Z,0.45
2022-10-19T02:52:26.580Z,0.75
2022-10-19T02:54:56.742Z,0.73
2022-10-19T02:57:26.856Z,0.80
2022-10-19T02:59:56.988Z,0.65
2022-10-19T03:02:27.239Z,0.85
2022-10-19T03:04:57.467Z,0.80
2022-10-19T03:07:27.628Z,0.90
2022-10-19T03:09:57.959Z,0.70
2022-10-19T03:12:28.421Z,0.75
2022-10-19T03:14:58.492Z,0.88
2022-10-19T03:17:28.673Z,0.70
2022-10-19T03:19:58.813Z,0.65
2022-10-19T03:22:28.868Z,0.98
2022-10-19T03:24:58.992Z,1.00
2022-10-19T03:27:29.119Z,0.82
2022-10-19T03:29:59.228Z,0.70
2022-10-19T03:32:29.352Z,0.50
2022-10-19T03:34:59.545Z,0.80
2022-10-19T03:37:29.818Z,0.50
2022-10-19T03:40:00.021Z,0.70
2022-10-19T03:42:30.177Z,0.98
2022-10-19T03:45:00.241Z,1.00
2022-10-19T03:47:30.629Z,1.10
2022-10-19T03:50:00.871Z,1.10
2022-10-19T03:52:30.952Z,1.20
2022-10-19T03:55:01.142Z,1.92
2022-10-19T03:57:31.430Z,1.90
2022-10-19T04:00:01.994Z,1.67
2022-10-19T04:02:32.149Z,0.82
2022-10-19T04:05:02.278Z,0.70
2022-10-19T04:07:32.609Z,1.20
2022-10-19T04:10:03.296Z,0.80
2022-10-19T04:12:33.611Z,1.35
2022-10-19T04:15:05.392Z,1.77
2022-10-19T04:17:35.784Z,2.70
2022-10-19T04:20:06.746Z,1.92
2022-10-19T04:22:36.963Z,1.50
2022-10-19T04:25:09.281Z,1.00
2022-10-19T04:27:39.358Z,0.60
2022-10-19T04:30:09.897Z,0.43
2022-10-19T04:32:40.010Z,0.55
2022-10-19T04:35:10.152Z,0.60
2022-10-19T04:37:40.275Z,0.60
2022-10-19T04:40:14.983Z,0.60
2022-10-19T04:42:45.489Z,0.73
2022-10-19T04:45:15.677Z,0.57
2022-10-19T04:47:45.751Z,1.10
2022-10-19T04:50:16.061Z,1.02
2022-10-19T04:52:46.230Z,0.80
2022-10-19T04:55:17.028Z,1.02
2022-10-19T04:57:47.261Z,1.00
2022-10-19T05:00:17.460Z,1.67
2022-10-19T05:02:48.241Z,3.80
2022-10-19T05:05:18.536Z,4.05
2022-10-19T05:07:49.289Z,2.50
2022-10-19T05:10:19.404Z,1.65
2022-10-19T05:12:49.444Z,1.45
2022-10-19T05:15:19.583Z,1.35
2022-10-19T05:17:49.613Z,1.30
2022-10-19T05:20:20.114Z,1.55
2022-10-19T05:22:50.863Z,1.15
2022-10-19T05:25:21.144Z,0.90
2022-10-19T05:27:52.815Z,0.77
2022-10-19T05:30:22.958Z,1.05
2022-10-19T05:32:53.107Z,1.80
2022-10-19T05:35:23.298Z,1.73
2022-10-19T05:37:58.522Z,0.85
2022-10-19T05:40:28.853Z,1.40
2022-10-19T05:42:59.007Z,3.08
2022-10-19T05:45:29.118Z,2.92
2022-10-19T05:47:59.363Z,2.33
2022-10-19T05:50:29.605Z,2.58
2022-10-19T05:52:59.813Z,2.42
2022-10-19T05:55:30.008Z,2.67
2022-10-19T05:58:00.260Z,2.50
2022-10-19T06:00:30.623Z,2.40
2022-10-19T06:03:00.742Z,1.70
2022-10-19T06:05:30.805Z,1.70
2022-10-19T06:08:00.937Z,1.60
2022-10-19T06:10:31.042Z,1.70
2022-10-19T06:13:01.174Z,2.17
2022-10-19T06:15:34.649Z,1.70
2022-10-19T06:18:05.254Z,1.25
2022-10-19T06:20:40.134Z,2.33
2022-10-19T06:23:10.388Z,0.57
2022-10-19T06:25:41.987Z,1.02
2022-10-19T06:28:12.308Z,0.85
2022-10-19T06:30:42.877Z,0.52
2022-10-19T06:33:12.991Z,0.68
2022-10-19T06:35:43.283Z,0.77
2022-10-19T06:38:14.034Z,0.98
2022-10-19T06:40:44.351Z,0.73
2022-10-19T06:43:14.728Z,0.80
2022-10-19T06:45:45.097Z,1.33
2022-10-19T06:48:15.229Z,1.75
2022-10-19T06:50:45.553Z,1.88
2022-10-19T06:53:15.645Z,0.90
2022-10-19T06:55:45.713Z,0.80
2022-10-19T06:58:15.883Z,0.88
2022-10-19T07:00:46.232Z,0.50
2022-10-19T07:03:17.848Z,0.40
2022-10-19T07:05:56.552Z,0.55
2022-10-19T07:08:28.718Z,0.65
2022-10-19T07:11:01.451Z,0.60
2022-10-19T07:13:31.692Z,0.98
2022-10-19T07:16:16.110Z,0.40
2022-10-19T07:18:52.347Z,0.30
2022-10-19T07:21:23.660Z,0.40
2022-10-19T07:23:53.799Z,1.70
2022-10-19T07:26:26.945Z,0.68
2022-10-19T07:28:57.630Z,1.13
2022-10-19T07:31:29.516Z,0.75
2022-10-19T07:34:02.137Z,0.45
2022-10-19T07:36:37.081Z,0.75
2022-10-19T07:39:07.939Z,0.40
2022-10-19T07:41:39.245Z,0.40
2022-10-19T07:44:10.965Z,0.77
2022-10-19T07:46:44.199Z,0.50
2022-10-19T07:49:20.159Z,0.45
2022-10-19T07:51:54.217Z,0.50
2022-10-19T07:54:24.742Z,0.65
2022-10-19T07:56:54.895Z,0.75
2022-10-19T07:59:24.928Z,0.50
2022-10-19T08:01:57.194Z,0.52
2022-10-19T08:07:17.509Z,0.50
2022-10-19T08:09:53.235Z,0.35
2022-10-19T08:12:23.919Z,0.30
2022-10-19T08:14:54.583Z,0.55
2022-10-19T08:17:24.707Z,0.55
2022-10-19T08:19:54.950Z,0.50
2022-10-19T08:22:24.990Z,0.40
2022-10-19T08:24:55.108Z,0.50
2022-10-19T08:27:25.665Z,0.63
2022-10-19T08:29:55.775Z,2.25
2022-10-19T08:32:25.878Z,1.42
2022-10-19T08:34:56.017Z,0.60
2022-10-19T08:37:40.687Z,0.40
2022-10-19T08:40:21.343Z,0.73
2022-10-19T08:43:05.514Z,0.73
2022-10-19T08:45:59.488Z,0.85
2022-10-19T08:48:33.284Z,0.88
2022-10-19T08:51:05.750Z,0.65
2022-10-19T08:54:05.003Z,0.80
2022-10-19T08:56:55.832Z,0.80
2022-10-19T08:59:45.680Z,1.13
2022-10-19T09:02:29.118Z,1.02
2022-10-19T09:05:08.271Z,0.70
2022-10-19T09:07:45.651Z,1.00
2022-10-19T09:10:19.619Z,0.63
2022-10-19T09:12:49.687Z,0.47
2022-10-19T09:15:26.330Z,1.30
2022-10-19T09:17:56.477Z,0.90
2022-10-19T09:20:33.752Z,0.50
2022-10-19T09:23:13.441Z,0.68
2022-10-19T09:25:43.812Z,0.90
2022-10-19T09:29:02.540Z,1.20
2022-10-19T09:31:40.479Z,0.70
2022-10-19T09:34:16.971Z,0.80
2022-10-19T09:36:53.145Z,1.17
2022-10-19T09:39:27.069Z,0.70
2022-10-19T09:42:02.825Z,0.90
2022-10-19T09:44:33.103Z,0.80
2022-10-19T09:47:13.924Z,0.73
2022-10-19T09:49:47.242Z,1.00
2022-10-19T09:52:29.568Z,0.70
2022-10-19T09:55:13.345Z,1.52
2022-10-19T09:58:04.647Z,1.38
2022-10-19T10:00:42.866Z,4.38
2022-10-19T10:03:23.535Z,3.25
2022-10-19T10:05:55.878Z,3.13
2022-10-19T10:08:30.363Z,1.80
2022-10-19T10:11:08.315Z,1.55
2022-10-19T10:13:41.772Z,1.85
2022-10-19T10:16:16.028Z,1.27
2022-10-19T10:19:00.883Z,1.20
2022-10-19T10:21:36.539Z,1.10
2022-10-19T10:24:12.708Z,0.75
2022-10-19T10:26:48.561Z,0.68
2022-10-19T10:29:22.910Z,0.40
2022-10-19T10:32:02.066Z,1.20
2022-10-19T10:34:51.026Z,0.50
2022-10-19T10:37:46.601Z,0.40
2022-10-19T10:40:28.808Z,0.55
2022-10-19T10:43:06.823Z,0.38
2022-10-19T10:45:46.742Z,2.25
2022-10-19T10:48:38.758Z,0.90
2022-10-19T10:51:20.971Z,1.67
2022-10-19T10:53:51.922Z,1.98
2022-10-19T10:56:27.640Z,2.17
2022-10-19T10:59:07.733Z,0.90
2022-10-19T11:01:46.461Z,1.40
2022-10-19T11:04:24.219Z,0.98
2022-10-19T11:07:08.596Z,1.15
2022-10-19T11:09:44.270Z,0.85
2022-10-19T11:12:19.765Z,1.58
2022-10-19T11:14:57.322Z,0.70
2022-10-19T11:17:34.036Z,1.33
2022-10-19T11:22:57.689Z,2.95
2022-10-19T11:25:58.364Z,1.52
2022-10-19T11:29:18.966Z,1.67
2022-10-19T11:31:56.889Z,3.05
2022-10-19T11:34:48.059Z,0.88
2022-10-19T11:37:25.066Z,0.60
2022-10-19T11:40:12.036Z,0.80
2022-10-19T11:42:56.360Z,0.60
2022-10-19T11:45:55.588Z,0.80
2022-10-19T11:48:35.830Z,1.10
2022-10-19T11:51:30.105Z,1.50
2022-10-19T11:54:32.817Z,0.50
2022-10-19T11:57:10.539Z,1.05
2022-10-19T12:00:14.078Z,1.60
2022-10-19T12:03:12.997Z,1.40
2022-10-19T12:06:04.469Z,0.95
2022-10-19T12:08:40.267Z,0.90
2022-10-19T12:11:21.491Z,1.75
2022-10-19T12:13:56.438Z,0.73
2022-10-19T12:16:37.392Z,1.13
2022-10-19T12:19:17.732Z,1.35
2022-10-19T12:21:48.874Z,0.70
2022-10-19T12:24:25.931Z,0.40
2022-10-19T12:26:57.278Z,0.60
2022-10-19T12:29:32.614Z,2.40
2022-10-19T12:32:05.033Z,0.70
2022-10-19T12:35:01.120Z,2.30
2022-10-19T12:38:10.847Z,1.25
2022-10-19T12:40:51.703Z,0.45
2022-10-19T12:43:38.965Z,0.55
2022-10-19T12:46:27.552Z,0.40
2022-10-19T12:49:31.479Z,0.40
2022-10-19T12:52:02.707Z,0.43
2022-10-19T12:54:36.236Z,0.40
2022-10-19T12:57:28.050Z,1.00
2022-10-19T13:00:00.974Z,0.73
2022-10-19T13:02:35.883Z,0.82
2022-10-19T13:05:07.413Z,0.77
2022-10-19T13:07:38.187Z,1.13
2022-10-19T13:10:20.890Z,1.00
2022-10-19T13:12:52.166Z,1.73
2022-10-19T13:15:34.710Z,1.33
2022-10-19T13:18:17.099Z,1.23
2022-10-19T13:20:54.085Z,0.60
2022-10-19T13:23:27.222Z,0.40
2022-10-19T13:26:45.496Z,0.60
2022-10-19T13:29:25.902Z,0.60
2022-10-19T13:32:16.012Z,0.52
2022-10-19T13:34:46.999Z,0.30
2022-10-19T13:37:19.277Z,0.70
2022-10-19T13:39:50.043Z,0.60
2022-10-19T13:42:28.325Z,0.50
2022-10-19T13:44:58.580Z,0.50
2022-10-19T13:50:22.753Z,0.45
2022-10-19T13:53:08.046Z,1.77
2022-10-19T13:55:49.238Z,1.10
2022-10-19T13:58:36.579Z,1.02
2022-10-19T14:01:45.792Z,1.40
2022-10-19T14:04:42.465Z,0.70
2022-10-19T14:07:39.012Z,0.80
2022-10-19T14:10:33.112Z,2.00
2022-10-19T14:13:15.486Z,1.90
2022-10-19T14:15:55.212Z,1.15
2022-10-19T14:18:28.972Z,1.40
2022-10-19T14:21:05.188Z,0.95
2022-10-19T14:23:39.937Z,0.60
2022-10-19T14:26:20.708Z,0.28
2022-10-19T14:28:57.377Z,0.52
2022-10-19T14:31:37.420Z,0.90
2022-10-19T14:34:09.433Z,0.30
2022-10-19T14:36:45.207Z,0.50
2022-10-19T14:39:30.906Z,0.38
2022-10-19T14:42:06.116Z,0.87
2022-10-19T14:44:42.765Z,0.50
2022-10-19T14:49:51.144Z,0.30
2022-10-19T14:52:31.663Z,0.85
2022-10-19T14:55:11.589Z,1.45
2022-10-19T14:57:47.719Z,0.90
2022-10-19T15:00:21.423Z,2.00
2022-10-19T15:02:54.326Z,1.30
2022-10-19T15:05:28.490Z,4.25
2022-10-19T15:08:10.331Z,2.40
2022-10-19T15:10:46.708Z,2.13
2022-10-19T15:13:47.591Z,2.85
2022-10-19T15:16:49.858Z,2.63
2022-10-19T15:19:32.017Z,3.47
2022-10-19T15:22:21.978Z,2.67
2022-10-19T15:25:08.703Z,1.98
2022-10-19T15:27:46.327Z,2.00
2022-10-19T15:30:19.728Z,2.00
2022-10-19T15:33:02.215Z,3.53
2022-10-19T15:35:38.902Z,2.47
2022-10-19T15:38:19.852Z,2.65
2022-10-19T15:40:58.172Z,2.05
2022-10-19T15:43:34.037Z,1.80
2022-10-19T15:46:13.744Z,1.73
2022-10-19T15:48:51.120Z,2.20
2022-10-19T15:51:24.455Z,2.22
2022-10-19T15:53:58.491Z,1.40
2022-10-19T15:56:31.990Z,2.13
2022-10-19T15:59:05.776Z,1.95
2022-10-19T16:01:36.498Z,1.52
2022-10-19T16:04:07.711Z,3.25
2022-10-19T16:06:42.035Z,1.90
2022-10-19T16:09:20.471Z,2.33
2022-10-19T16:11:56.781Z,1.98
2022-10-19T16:14:30.850Z,1.70
2022-10-19T16:17:05.954Z,1.40
2022-10-19T16:19:36.186Z,3.33
2022-10-19T16:22:06.596Z,3.00
2022-10-19T16:24:37.020Z,1.60
2022-10-19T16:27:08.001Z,1.90
2022-10-19T16:29:38.168Z,0.80
2022-10-19T16:32:09.382Z,2.60
2022-10-19T16:34:39.538Z,2.20
2022-10-19T16:37:09.605Z,1.50
2022-10-19T16:39:39.910Z,1.40
2022-10-19T16:42:10.054Z,2.33
2022-10-19T16:44:40.167Z,1.35
2022-10-19T16:47:14.013Z,1.45
2022-10-19T16:49:44.202Z,1.30
2022-10-19T16:52:17.251Z,1.52
2022-10-19T16:54:47.425Z,1.15
2022-10-19T16:57:17.820Z,1.00
2022-10-19T17:02:24.074Z,1.05
2022-10-19T17:04:54.468Z,1.38
2022-10-19T17:07:24.788Z,1.40
2022-10-19T17:09:55.122Z,0.85
2022-10-19T17:12:25.552Z,2.38
2022-10-19T17:15:00.498Z,0.90
2022-10-19T17:17:44.663Z,0.98
2022-10-19T17:20:15.883Z,1.33
2022-10-19T17:22:46.306Z,0.88
2022-10-19T17:25:16.558Z,0.90
2022-10-19T17:27:51.114Z,0.85
2022-10-19T17:30:21.234Z,1.05
2022-10-19T17:32:51.425Z,1.75
2022-10-19T17:35:21.645Z,1.08
2022-10-19T17:37:53.173Z,1.30
2022-10-19T17:40:23.526Z,2.03
2022-10-19T17:42:53.819Z,2.00
2022-10-19T17:45:27.458Z,2.00
2022-10-19T17:47:57.750Z,1.10
2022-10-19T17:50:27.894Z,1.65
2022-10-19T17:52:58.975Z,1.10
2022-10-19T17:55:29.177Z,0.77
2022-10-19T17:58:02.298Z,1.10
2022-10-19T18:00:34.809Z,0.82
2022-10-19T18:03:05.026Z,0.57
2022-10-19T18:05:35.308Z,0.90
2022-10-19T18:08:05.500Z,0.65
2022-10-19T18:10:37.236Z,0.80
2022-10-19T18:13:07.540Z,0.70
2022-10-19T18:15:37.641Z,0.70
2022-10-19T18:18:07.729Z,0.73
2022-10-19T18:20:40.262Z,1.10
2022-10-19T18:23:10.424Z,1.02
2022-10-19T18:25:53.600Z,0.80
2022-10-19T18:28:24.282Z,0.75
2022-10-19T18:30:54.477Z,1.65
2022-10-19T18:33:29.050Z,0.65
2022-10-19T18:36:01.953Z,0.30
2022-10-19T18:38:32.294Z,0.95
2022-10-19T18:41:08.651Z,1.30
2022-10-19T18:43:40.189Z,0.60
2022-10-19T18:46:10.753Z,0.40
2022-10-19T18:48:40.887Z,0.60
2022-10-19T18:51:11.250Z,0.30
2022-10-19T18:53:42.148Z,0.55
2022-10-19T18:56:15.113Z,0.35
2022-10-19T18:58:45.494Z,0.25
2022-10-19T19:01:19.696Z,0.50
2022-10-19T19:03:52.495Z,0.90
2022-10-19T19:06:26.730Z,0.90
2022-10-19T19:08:58.662Z,0.77
2022-10-19T19:11:34.444Z,1.63
2022-10-19T19:14:13.759Z,2.20
2022-10-19T19:16:45.678Z,2.15
2022-10-19T19:19:17.790Z,2.90
2022-10-19T19:21:51.490Z,2.83
2022-10-19T19:24:22.648Z,2.40
2022-10-19T19:26:57.251Z,3.97
2022-10-19T19:29:28.089Z,2.53
2022-10-19T19:32:01.107Z,1.75
2022-10-19T19:34:31.473Z,1.38
2022-10-19T19:37:01.855Z,1.10
2022-10-19T19:39:33.032Z,0.68
2022-10-19T19:42:03.382Z,1.30
2022-10-19T19:44:33.562Z,2.10
2022-10-19T19:47:03.831Z,1.50
2022-10-19T19:49:36.518Z,2.80
2022-10-19T19:52:06.973Z,1.67
2022-10-19T19:54:37.088Z,1.30
2022-10-19T19:57:08.108Z,1.52
2022-10-19T19:59:38.549Z,1.48
2022-10-19T20:02:10.721Z,1.70
2022-10-19T20:04:40.838Z,1.58
2022-10-19T20:07:13.267Z,1.88
2022-10-19T20:09:45.627Z,1.02
2022-10-19T20:12:17.242Z,1.13
2022-10-19T20:14:47.442Z,1.10
2022-10-19T20:17:23.631Z,1.85
2022-10-19T20:19:53.832Z,1.60
2022-10-19T20:22:26.205Z,1.67
2022-10-19T20:24:56.510Z,1.80
2022-10-19T20:27:26.757Z,1.05
2022-10-19T20:29:59.877Z,1.20
2022-10-19T20:32:30.104Z,1.23
2022-10-19T20:35:00.277Z,1.60
2022-10-19T20:37:31.449Z,1.13
2022-10-19T20:40:07.445Z,1.33
2022-10-19T20:42:38.868Z,0.93
2022-10-19T20:45:09.548Z,1.08
2022-10-19T20:47:42.120Z,1.27
2022-10-19T20:50:12.230Z,1.10
2022-10-19T20:52:42.574Z,0.70
2022-10-19T20:55:12.677Z,1.17
2022-10-19T20:57:42.804Z,1.20
2022-10-19T21:00:13.637Z,1.10
2022-10-19T21:02:46.826Z,0.98
2022-10-19T21:05:17.107Z,1.23
2022-10-19T21:07:47.214Z,1.65
2022-10-19T21:10:17.304Z,1.42
2022-10-19T21:12:47.479Z,1.40
2022-10-19T21:15:17.619Z,1.02
2022-10-19T21:17:48.166Z,2.40
2022-10-19T21:20:18.396Z,2.13
2022-10-19T21:22:48.533Z,2.30
2022-10-19T21:25:18.704Z,2.40
2022-10-19T21:27:52.012Z,2.28
2022-10-19T21:30:22.243Z,4.88
2022-10-19T21:32:52.438Z,3.45
2022-10-19T21:35:22.576Z,2.83
2022-10-19T21:37:52.637Z,4.70
2022-10-19T21:40:22.733Z,2.33
2022-10-19T21:42:52.870Z,1.27
2022-10-19T21:45:30.391Z,1.05
2022-10-19T21:48:00.889Z,0.80
2022-10-19T21:50:31.101Z,0.45
2022-10-19T21:53:01.298Z,0.77
2022-10-19T21:55:34.096Z,0.50
2022-10-19T21:58:05.240Z,0.90
2022-10-19T22:00:36.434Z,0.65
2022-10-19T22:03:06.695Z,0.80
2022-10-19T22:05:36.982Z,0.60
2022-10-19T22:08:07.076Z,0.50
2022-10-19T22:10:38.071Z,0.52
2022-10-19T22:13:08.237Z,0.77
2022-10-19T22:15:39.410Z,0.22
2022-10-19T22:18:09.893Z,0.43
2022-10-19T22:20:40.754Z,0.50
2022-10-19T22:23:10.892Z,0.40
2022-10-19T22:25:40.972Z,0.55
2022-10-19T22:28:11.020Z,0.55
2022-10-19T22:30:45.186Z,0.38
2022-10-19T22:33:15.846Z,0.70
2022-10-19T22:36:02.536Z,0.60
2022-10-19T22:41:03.561Z,0.40
2022-10-19T22:43:33.629Z,0.80
2022-10-19T22:46:03.983Z,0.70
2022-10-19T22:48:34.446Z,0.77
2022-10-19T22:51:04.603Z,0.80
2022-10-19T22:53:34.655Z,0.73
2022-10-19T22:56:05.300Z,1.02
2022-10-19T22:58:35.384Z,0.88
2022-10-19T23:01:08.338Z,4.22
2022-10-19T23:03:40.506Z,2.70
2022-10-19T23:06:13.704Z,6.80
2022-10-19T23:08:44.940Z,7.75
2022-10-19T23:11:16.026Z,3.50
2022-10-19T23:13:46.128Z,5.72
2022-10-19T23:16:16.332Z,4.57
2022-10-19T23:18:46.471Z,3.35
2022-10-19T23:21:16.579Z,2.90
2022-10-19T23:23:46.811Z,2.63
2022-10-19T23:26:19.083Z,3.30
2022-10-19T23:28:50.815Z,3.83
2022-10-19T23:31:26.682Z,3.45
2022-10-19T23:33:57.167Z,3.08
2022-10-19T23:36:28.934Z,3.17
2022-10-19T23:38:59.235Z,4.35
2022-10-19T23:41:29.247Z,4.13
2022-10-19T23:43:59.405Z,5.13
2022-10-19T23:46:29.497Z,4.90
2022-10-19T23:48:59.766Z,3.97
2022-10-19T23:51:29.860Z,3.95
2022-10-19T23:54:00.052Z,4.00
2022-10-19T23:56:30.143Z,4.13
2022-10-19T23:59:00.233Z,8.23
